Pagrindinis puslapis
METAR-TAF:

METAR-TAF

Oro uostai :

Kodiak, Aliaska, Jungtinės Amerikos Valstijos

platuma: 57-45N, ilguma: 152-30W, Aukštis: 22 m

Dabartinis oras

Ataskaita buvo paskelbta 34 minutes, ne 20:53 UTC
Vėjas 21 kt iš Vakarų su gūsio iki 35 kt
Temperatūra 12°C
Drėgmė 30%
Slėgis 1000 hPa
Matomumas: 16.1 km
Giedras dangus

METAR: PADQ 212053Z 27021G35KT 10SM CLR 12/M05 A2954 RMK AO2 PK WND 30036/2005 SLP002 T01221050 53017 $

Laikas: 13:27 (21:27 UTC)

Prognozė

Ataskaita buvo paskelbta 3 valandos ir 51 minutes, ne 17:36 UTC
Prognozė galioja nuo 21 metu 18 UTC su 22 metu 18 UTC
Vėjas 20 kt iš Vakarų su gūsio iki 30 kt
Matomumas: 10 km
Išsisklaidę debesys ne aukštis 4500 ft
Nuo 22 metu 0600 UTC
Vėjas 7 kt iš Vakarų
Matomumas: 10 km
Su prošvaistėmis ne aukštis 20000 ft
Nuo 22 metu 1600 UTC
Vėjas 4 kt nuo kintamojo kryptimis
Matomumas: 10 km
Išsisklaidę debesys ne aukštis 4000 ft
Su prošvaistėmis ne aukštis 8000 ft
Liūtis kaimynystėje

TAF: PADQ 211736Z 2118/2218 27020G30KT P6SM SCT045 FM220600 26007KT P6SM BKN200 FM221600 VRB04KT P6SM VCSH SCT040 BKN080

Orai ataskaitas ir orų prognozės (METAR, TAF).

turimą stotys yra geltonos ir raudonos taškus žemėlapyje.

Perkelti pele per norėdami pamatyti stoties vardą.

Tada spustelėkite, norėdami matyti oro stebėjimo ir prognozės.

Norėdami pakeisti žemėlapį: spustelėkite ant žalios mygtukų su juodo kryžiaus žemyn,; žalią mygtuką su brūkšneliu, jei norite nutolinti; arba žalių rodyklių gretimoms žemėlapius.


METAR-TAF: